Time;durP1;ratioP1;P1;durP2;ratioP2;P2;SDS_P1;SDS_P2;PMS_P1;PMS_P2;Temp;Humidity;BMP_temperature;BMP_pressure;BME280_temperature;BME280_humidity;BME280_pressure;Samples;Min_cycle;Max_cycle;Signal;HPM_P1;HPM_P2
2021/09/05 00:02:01;;;;;;;8.00;7.20;;;;;;;16.93;68.89;101297.53;5055882;28;20056;-53
2021/09/05 00:04:27;;;;;;;7.70;6.97;;;;;;;16.92;68.85;101298.47;5050601;28;20081;-52
2021/09/05 00:06:52;;;;;;;7.57;6.82;;;;;;;16.91;68.96;101299.38;5072998;28;20029;-54
2021/09/05 00:09:18;;;;;;;7.38;6.60;;;;;;;16.91;68.93;101300.25;5038232;28;20036;-52
2021/09/05 00:11:43;;;;;;;6.88;6.18;;;;;;;16.92;69.29;101301.13;5055273;28;20024;-52
2021/09/05 00:14:08;;;;;;;7.88;6.68;;;;;;;16.90;69.05;101298.50;5070097;28;20028;-52
2021/09/05 00:16:34;;;;;;;7.28;6.40;;;;;;;16.90;68.94;101297.63;5072400;28;20078;-52
2021/09/05 00:19:00;;;;;;;9.73;7.20;;;;;;;16.90;69.15;101294.97;5050253;28;20028;-51
2021/09/05 00:21:26;;;;;;;7.10;6.03;;;;;;;16.89;69.07;101295.88;5071575;28;20073;-51
2021/09/05 00:23:51;;;;;;;7.13;6.40;;;;;;;16.88;69.10;101294.13;5022624;28;20029;-53
2021/09/05 00:26:17;;;;;;;6.72;6.10;;;;;;;16.88;69.11;101299.47;5071658;28;20090;-53
2021/09/05 00:28:42;;;;;;;6.90;6.18;;;;;;;16.87;69.04;101303.91;5069451;28;20016;-53
2021/09/05 00:31:08;;;;;;;7.78;6.97;;;;;;;16.87;69.01;101309.22;5070783;28;20044;-53
2021/09/05 00:33:33;;;;;;;7.43;6.63;;;;;;;16.86;69.11;101310.16;5053698;28;20466;-52
2021/09/05 00:35:58;;;;;;;6.80;6.10;;;;;;;16.85;69.08;101310.19;5072524;28;20028;-53
2021/09/05 00:38:24;;;;;;;7.15;6.45;;;;;;;16.85;69.13;101305.75;5073950;28;20032;-53
2021/09/05 00:40:49;;;;;;;7.63;6.57;;;;;;;16.85;69.17;101310.19;5052828;28;20502;-53
2021/09/05 00:43:14;;;;;;;7.20;6.50;;;;;;;16.84;69.11;101306.66;5058027;28;20027;-53
2021/09/05 00:45:40;;;;;;;8.07;6.55;;;;;;;16.83;69.27;101304.00;5053821;28;20024;-53
2021/09/05 00:48:05;;;;;;;7.57;6.88;;;;;;;16.83;69.06;101314.66;5072492;28;20032;-51
2021/09/05 00:50:31;;;;;;;7.00;6.30;;;;;;;16.83;69.12;101314.66;5070556;28;20055;-52
2021/09/05 00:52:56;;;;;;;7.43;6.72;;;;;;;16.82;69.21;101315.59;5052343;28;20021;-51
2021/09/05 00:55:23;;;;;;;6.65;6.03;;;;;;;16.82;69.20;101316.47;5058298;28;20035;-51
2021/09/05 00:57:51;;;;;;;6.97;6.28;;;;;;;16.82;69.17;101315.59;5071590;28;20032;-51
2021/09/05 01:00:19;;;;;;;7.88;7.07;;;;;;;16.80;69.23;101308.53;5070015;28;20537;-51
2021/09/05 01:02:45;;;;;;;7.70;6.93;;;;;;;16.79;69.23;101312.09;5054702;28;20028;-55
2021/09/05 01:05:11;;;;;;;8.32;6.75;;;;;;;16.78;69.34;101313.00;5071418;28;20078;-51
2021/09/05 01:07:36;;;;;;;7.32;6.63;;;;;;;16.79;69.43;101305.91;5073792;28;20036;-52
2021/09/05 01:10:02;;;;;;;8.23;6.95;;;;;;;16.76;69.24;101309.53;5054131;28;20052;-50
2021/09/05 01:12:27;;;;;;;9.50;6.78;;;;;;;16.77;69.40;101313.03;5053637;28;20036;-52
2021/09/05 01:14:53;;;;;;;7.10;6.40;;;;;;;16.76;69.29;101304.19;5070473;28;21350;-51
2021/09/05 01:17:19;;;;;;;8.35;7.07;;;;;;;16.76;69.57;101309.53;5042292;28;20035;-53
2021/09/05 01:19:44;;;;;;;7.22;6.53;;;;;;;16.76;69.30;101306.84;5069662;28;20493;-53
2021/09/05 01:22:10;;;;;;;6.72;6.03;;;;;;;16.75;69.40;101312.22;5055866;28;20064;-53
2021/09/05 01:24:35;;;;;;;9.52;6.38;;;;;;;16.75;69.28;101314.88;5058934;28;20069;-52
2021/09/05 01:27:00;;;;;;;7.22;5.85;;;;;;;16.75;69.47;101314.88;5072746;28;20040;-53
2021/09/05 01:29:26;;;;;;;8.02;6.55;;;;;;;16.73;69.58;101312.25;5059332;28;20497;-53
2021/09/05 01:31:54;;;;;;;7.68;6.88;;;;;;;16.72;69.56;101315.84;5069389;28;20056;-53
2021/09/05 01:34:22;;;;;;;8.35;6.75;;;;;;;16.72;69.35;101321.16;5074918;28;20024;-53
2021/09/05 01:36:49;;;;;;;7.60;6.80;;;;;;;16.70;69.47;101309.66;5074366;28;20081;-53
2021/09/05 01:39:17;;;;;;;7.53;6.82;;;;;;;16.71;69.37;101308.78;5075201;28;20115;-53
2021/09/05 01:41:43;;;;;;;7.28;6.00;;;;;;;16.71;69.47;101313.22;5073012;28;20031;-51
2021/09/05 01:44:11;;;;;;;7.93;6.57;;;;;;;16.70;69.54;101314.97;5073298;28;20028;-51
2021/09/05 01:46:36;;;;;;;8.82;7.30;;;;;;;16.70;69.37;101311.47;5073174;28;20401;-51
2021/09/05 01:49:02;;;;;;;7.78;7.07;;;;;;;16.70;69.39;101322.13;5074812;28;20465;-52
2021/09/05 01:51:28;;;;;;;7.35;6.57;;;;;;;16.69;69.39;101313.25;5073425;28;20031;-51
2021/09/05 01:53:54;;;;;;;7.10;6.40;;;;;;;16.71;69.32;101316.75;5041494;28;20078;-51
2021/09/05 01:56:19;;;;;;;7.63;6.68;;;;;;;16.71;69.13;101318.53;5074285;28;20039;-51
2021/09/05 01:58:45;;;;;;;7.38;6.50;;;;;;;16.71;69.16;101323.88;5076354;28;20034;-51
2021/09/05 02:01:11;;;;;;;6.78;6.07;;;;;;;16.74;68.88;101321.97;5069704;28;20094;-51
2021/09/05 02:03:36;;;;;;;8.18;7.32;;;;;;;16.72;68.98;101321.16;5073625;28;20017;-50
2021/09/05 02:06:03;;;;;;;6.95;6.03;;;;;;;16.74;68.86;101329.97;5076219;28;20473;-51
2021/09/05 02:08:29;;;;;;;7.65;6.72;;;;;;;16.75;68.70;101325.53;5076227;28;20038;-51
2021/09/05 02:10:54;;;;;;;8.10;6.60;;;;;;;16.75;68.78;101323.75;5072127;28;20028;-51
2021/09/05 02:13:20;;;;;;;8.63;6.63;;;;;;;16.74;68.66;101318.47;5072772;28;20388;-51
2021/09/05 02:15:46;;;;;;;7.30;6.53;;;;;;;16.73;68.98;101312.25;5073939;28;20028;-51
2021/09/05 02:18:11;;;;;;;8.73;6.25;;;;;;;16.70;68.69;101317.66;5056893;28;20032;-51
2021/09/05 02:20:37;;;;;;;6.90;6.20;;;;;;;16.68;68.72;101319.50;5071168;28;20031;-50
2021/09/05 02:23:03;;;;;;;7.32;6.63;;;;;;;16.70;68.82;101316.78;5071872;28;20077;-51
2021/09/05 02:25:28;;;;;;;7.57;6.80;;;;;;;16.69;68.63;101310.56;5071446;28;20029;-52
2021/09/05 02:27:54;;;;;;;7.97;6.43;;;;;;;16.66;68.72;101315.97;5071939;28;20032;-50
2021/09/05 02:30:20;;;;;;;7.07;6.38;;;;;;;16.66;68.65;101310.66;5071446;28;20497;-50
2021/09/05 02:32:45;;;;;;;7.30;6.32;;;;;;;16.64;68.76;101312.50;5071709;28;20036;-51
2021/09/05 02:35:11;;;;;;;7.28;6.18;;;;;;;16.66;68.72;101323.97;5071227;28;20032;-50
2021/09/05 02:37:38;;;;;;;7.85;6.45;;;;;;;16.64;68.79;101323.16;5072164;28;20024;-50
2021/09/05 02:40:07;;;;;;;6.53;5.93;;;;;;;16.60;68.98;101316.16;5071864;28;20024;-52
2021/09/05 02:42:34;;;;;;;6.47;5.72;;;;;;;16.60;68.93;101318.81;5037581;28;20433;-51
2021/09/05 02:45:01;;;;;;;7.57;6.13;;;;;;;16.60;68.77;101327.66;5070192;28;20024;-50
2021/09/05 02:47:27;;;;;;;7.88;5.93;;;;;;;16.59;68.84;101328.56;5071843;28;20025;-51
2021/09/05 02:49:53;;;;;;;7.45;6.75;;;;;;;16.53;69.08;101326.94;5073569;28;20024;-51
2021/09/05 02:52:19;;;;;;;7.18;6.47;;;;;;;16.55;68.96;101327.75;5057475;28;20031;-51
2021/09/05 02:54:44;;;;;;;6.50;5.88;;;;;;;16.54;69.24;101327.81;5070881;28;20032;-50
2021/09/05 02:57:11;;;;;;;7.63;6.20;;;;;;;16.53;69.26;101332.25;5055673;28;20093;-51
2021/09/05 02:59:37;;;;;;;7.40;6.05;;;;;;;16.52;69.31;101327.84;5072470;28;20024;-50
2021/09/05 03:02:03;;;;;;;7.22;6.40;;;;;;;16.51;69.12;101328.72;5072824;28;20036;-51
2021/09/05 03:04:28;;;;;;;7.18;6.45;;;;;;;16.51;69.11;101334.06;5072041;28;20025;-50
2021/09/05 03:06:55;;;;;;;7.90;6.07;;;;;;;16.50;69.01;101332.31;5071438;28;20070;-51
2021/09/05 03:09:21;;;;;;;7.28;6.05;;;;;;;16.49;69.00;101330.56;5038578;28;20104;-52
2021/09/05 03:11:47;;;;;;;6.70;6.00;;;;;;;16.48;69.35;101333.28;5055412;28;20047;-50
2021/09/05 03:14:13;;;;;;;8.45;6.32;;;;;;;16.46;69.19;101335.97;5071783;28;20024;-50
2021/09/05 03:16:40;;;;;;;7.50;6.07;;;;;;;16.47;69.03;101332.38;5053763;28;20040;-50
2021/09/05 03:19:07;;;;;;;7.75;5.72;;;;;;;16.46;68.96;101330.66;5053466;28;20017;-52
2021/09/05 03:21:33;;;;;;;6.18;5.57;;;;;;;16.46;69.22;101335.97;5035827;28;20024;-51
2021/09/05 03:23:59;;;;;;;6.70;5.93;;;;;;;16.45;68.82;101328.91;5055720;28;20039;-50
2021/09/05 03:26:25;;;;;;;9.23;6.00;;;;;;;16.43;68.98;101325.38;5070821;28;20050;-51
2021/09/05 03:28:51;;;;;;;6.57;5.80;;;;;;;16.40;69.08;101315.69;5070320;28;20059;-52
2021/09/05 03:31:17;;;;;;;6.45;5.75;;;;;;;16.41;69.10;101327.22;5039167;28;20028;-51
2021/09/05 03:33:43;;;;;;;6.28;5.50;;;;;;;16.41;68.84;101327.22;5038005;28;20082;-51
2021/09/05 03:36:09;;;;;;;6.88;6.07;;;;;;;16.40;69.14;101334.31;5070636;28;20835;-50
2021/09/05 03:38:34;;;;;;;7.32;6.32;;;;;;;16.40;69.32;101331.66;5059193;28;20058;-52
2021/09/05 03:41:00;;;;;;;7.72;6.93;;;;;;;16.38;68.81;101327.28;5072995;28;20024;-52
2021/09/05 03:43:26;;;;;;;6.95;6.03;;;;;;;16.38;69.02;101335.28;5070278;28;20035;-52
2021/09/05 03:45:52;;;;;;;7.20;6.20;;;;;;;16.39;68.87;101345.00;5054184;28;20444;-51
2021/09/05 03:48:17;;;;;;;7.88;5.95;;;;;;;16.37;69.01;101338.84;5071176;28;20038;-50
2021/09/05 03:50:43;;;;;;;7.30;6.38;;;;;;;16.36;69.00;101345.94;5067377;28;20020;-51
2021/09/05 03:53:09;;;;;;;7.18;6.47;;;;;;;16.36;68.85;101345.06;5070269;28;20035;-50
2021/09/05 03:55:35;;;;;;;7.07;6.38;;;;;;;16.35;68.87;101351.31;5072192;28;20036;-50
2021/09/05 03:58:02;;;;;;;7.40;6.43;;;;;;;16.34;68.72;101341.59;5057682;28;20111;-51
2021/09/05 04:00:28;;;;;;;6.47;5.80;;;;;;;16.33;68.76;101337.16;5056622;28;20031;-52
2021/09/05 04:02:54;;;;;;;7.97;7.18;;;;;;;16.33;69.00;101346.03;5065832;28;20525;-51
2021/09/05 04:05:20;;;;;;;7.43;6.60;;;;;;;16.31;68.80;101345.19;5050788;28;20055;-51
2021/09/05 04:10:28;;;;;;;7.43;6.60;;;;;;;16.31;68.71;101337.22;5069528;28;20032;-50
2021/09/05 04:12:53;;;;;;;6.45;5.78;;;;;;;16.31;68.70;101336.31;5055031;28;20031;-50
2021/09/05 04:15:19;;;;;;;6.47;5.80;;;;;;;16.30;68.73;101340.75;5069905;28;20021;-51
2021/09/05 04:17:44;;;;;;;7.35;6.28;;;;;;;16.29;68.61;101339.91;5051587;28;20494;-51
2021/09/05 04:20:10;;;;;;;8.50;6.45;;;;;;;16.26;68.65;101336.41;5053248;28;20029;-50
2021/09/05 04:22:36;;;;;;;6.65;5.95;;;;;;;16.28;68.58;101343.44;5069767;28;20031;-51
2021/09/05 04:25:02;;;;;;;7.00;6.30;;;;;;;16.27;68.82;101343.47;5038267;28;20028;-51
2021/09/05 04:27:28;;;;;;;6.82;6.13;;;;;;;16.27;68.68;101341.72;5054473;28;20140;-50
2021/09/05 04:29:54;;;;;;;6.85;6.15;;;;;;;16.28;68.70;101348.78;5054105;28;20067;-51
2021/09/05 04:32:20;;;;;;;7.63;6.45;;;;;;;16.26;68.46;101347.94;5050645;28;20028;-50
2021/09/05 04:34:47;;;;;;;5.80;5.30;;;;;;;16.25;68.56;101359.50;5056725;28;20020;-51
2021/09/05 04:37:12;;;;;;;6.75;5.53;;;;;;;16.25;68.68;101359.50;5073167;28;20108;-50
2021/09/05 04:39:38;;;;;;;6.47;5.82;;;;;;;16.24;68.45;101365.72;5072964;28;20052;-51
2021/09/05 04:42:03;;;;;;;6.45;5.75;;;;;;;16.25;68.64;101366.63;5070005;28;20354;-51
2021/09/05 04:44:28;;;;;;;5.88;5.35;;;;;;;16.26;68.71;101369.25;5053241;28;20024;-50
2021/09/05 04:46:54;;;;;;;6.68;6.00;;;;;;;16.25;68.64;101367.50;5069851;28;20455;-52
2021/09/05 04:49:19;;;;;;;6.53;5.82;;;;;;;16.22;68.67;101378.22;5072017;28;20029;-51
2021/09/05 04:51:44;;;;;;;6.60;5.82;;;;;;;16.22;68.58;101374.66;5066797;28;20055;-51
2021/09/05 04:54:10;;;;;;;6.32;5.70;;;;;;;16.22;68.44;101380.88;5067744;28;20393;-51
2021/09/05 04:56:35;;;;;;;7.20;6.20;;;;;;;16.21;68.70;101367.59;5073753;28;20551;-50
2021/09/05 04:59:00;;;;;;;5.78;5.18;;;;;;;16.20;68.55;101377.34;5069684;28;20044;-50
2021/09/05 05:01:26;;;;;;;7.05;5.78;;;;;;;16.17;68.65;101377.41;5067487;28;20056;-53
2021/09/05 05:03:51;;;;;;;5.53;5.03;;;;;;;16.19;68.73;101383.59;5068392;28;20028;-51
2021/09/05 05:06:16;;;;;;;5.22;4.72;;;;;;;16.19;68.38;101380.94;5070346;28;20048;-51
2021/09/05 05:08:42;;;;;;;5.10;4.65;;;;;;;16.19;68.52;101383.59;5074964;28;20028;-52
2021/09/05 05:11:12;;;;;;;5.68;5.10;;;;;;;16.18;68.48;101389.81;5056075;28;20028;-52
2021/09/05 05:13:37;;;;;;;5.17;4.77;;;;;;;16.19;68.49;101388.91;5059919;28;20021;-51
2021/09/05 05:16:03;;;;;;;7.07;5.20;;;;;;;16.16;68.52;101394.28;5072742;28;20044;-51
2021/09/05 05:18:28;;;;;;;5.30;4.80;;;;;;;16.16;68.55;101396.94;5057287;28;20036;-51
2021/09/05 05:20:53;;;;;;;6.07;5.47;;;;;;;16.15;68.44;101401.38;5056031;28;20029;-51
2021/09/05 05:23:19;;;;;;;5.25;4.75;;;;;;;16.13;68.28;101397.00;5073224;28;20024;-50
2021/09/05 05:25:44;;;;;;;6.03;5.35;;;;;;;16.13;68.43;101397.91;5056708;28;20017;-50
2021/09/05 05:28:10;;;;;;;5.80;5.20;;;;;;;16.12;68.44;101406.78;5072318;28;20024;-50
2021/09/05 05:30:35;;;;;;;4.82;4.40;;;;;;;16.10;68.58;101413.03;5072391;28;20069;-51
2021/09/05 05:33:01;;;;;;;5.50;5.00;;;;;;;16.08;68.45;101414.88;5076444;28;20111;-50
2021/09/05 05:35:26;;;;;;;5.75;5.03;;;;;;;16.09;68.01;101419.28;5059445;28;20015;-51
2021/09/05 05:37:52;;;;;;;6.28;5.40;;;;;;;16.09;68.49;101422.81;5073691;28;20026;-50
2021/09/05 05:40:22;;;;;;;5.30;4.80;;;;;;;16.10;68.31;101413.91;5070592;28;20051;-51
2021/09/05 05:42:48;;;;;;;4.70;4.30;;;;;;;16.07;68.57;101418.44;5071999;28;20058;-51
2021/09/05 05:45:16;;;;;;;4.97;4.50;;;;;;;16.07;68.45;101418.44;5071113;28;20032;-52
2021/09/05 05:47:42;;;;;;;5.40;4.90;;;;;;;16.06;68.47;101411.34;5071226;28;20122;-51
2021/09/05 05:50:08;;;;;;;6.05;4.28;;;;;;;16.05;68.45;101417.59;5073974;28;20040;-52
2021/09/05 05:52:34;;;;;;;5.55;5.07;;;;;;;16.02;68.58;101411.44;5072199;28;20016;-52
2021/09/05 05:55:00;;;;;;;5.53;5.03;;;;;;;16.02;68.49;101416.75;5072062;28;20123;-52
2021/09/05 05:57:26;;;;;;;5.13;4.63;;;;;;;16.02;68.71;101421.19;5072708;28;20512;-52
2021/09/05 05:59:52;;;;;;;4.93;4.53;;;;;;;16.01;68.61;101424.75;5072186;28;20024;-52
2021/09/05 06:02:18;;;;;;;5.13;4.72;;;;;;;16.00;68.79;101426.53;5074193;28;20103;-52
2021/09/05 06:04:45;;;;;;;5.03;4.53;;;;;;;16.01;68.62;101419.44;5074658;28;20562;-52
2021/09/05 06:07:10;;;;;;;5.07;4.68;;;;;;;15.99;68.75;101423.91;5070560;28;20102;-52
2021/09/05 06:09:40;;;;;;;4.88;4.47;;;;;;;15.98;68.67;101428.38;5071226;28;20486;-52
2021/09/05 06:12:07;;;;;;;5.07;4.57;;;;;;;15.98;68.54;101424.81;5071833;28;20048;-52
2021/09/05 06:14:33;;;;;;;5.35;4.85;;;;;;;15.98;68.65;101424.81;5068856;28;20024;-52
2021/09/05 06:16:59;;;;;;;4.78;4.32;;;;;;;15.98;68.64;101428.38;5070387;28;20074;-52
2021/09/05 06:19:25;;;;;;;5.43;4.93;;;;;;;16.00;68.50;101428.31;5071193;28;20036;-52
2021/09/05 06:21:51;;;;;;;5.60;5.10;;;;;;;15.98;68.45;101436.34;5071535;28;20020;-52
2021/09/05 06:24:17;;;;;;;6.00;4.85;;;;;;;15.97;68.58;101428.41;5057778;28;20034;-51
2021/09/05 06:26:43;;;;;;;5.47;4.90;;;;;;;15.98;68.64;101441.66;5071659;28;20028;-52
2021/09/05 06:29:08;;;;;;;5.35;4.75;;;;;;;15.96;68.53;101438.16;5070743;28;20379;-52
2021/09/05 06:31:34;;;;;;;6.13;5.50;;;;;;;15.98;68.43;101447.00;5072767;28;20108;-52
2021/09/05 06:34:00;;;;;;;5.70;5.20;;;;;;;15.96;68.59;101443.47;5074866;28;20038;-52
2021/09/05 06:36:26;;;;;;;5.18;4.70;;;;;;;15.96;68.55;101443.47;5056700;28;20016;-52
2021/09/05 06:38:51;;;;;;;5.32;4.82;;;;;;;15.96;68.36;101446.13;5073399;28;20024;-52
2021/09/05 06:41:17;;;;;;;5.80;5.10;;;;;;;15.96;68.40;101451.44;5056481;28;20023;-52
2021/09/05 06:43:43;;;;;;;5.28;4.78;;;;;;;15.95;68.48;101446.13;5053989;28;20032;-52
2021/09/05 06:46:09;;;;;;;5.65;5.13;;;;;;;15.97;68.54;101449.69;5071717;28;20070;-52
2021/09/05 06:48:36;;;;;;;5.55;5.05;;;;;;;15.96;68.48;101445.25;5069719;28;20165;-52
2021/09/05 06:51:01;;;;;;;5.60;4.88;;;;;;;15.97;68.34;101447.88;5057571;28;20036;-51
2021/09/05 06:53:27;;;;;;;5.80;5.10;;;;;;;15.94;68.49;101449.69;5070677;28;20036;-51
2021/09/05 06:55:53;;;;;;;5.78;5.18;;;;;;;15.94;68.54;101447.91;5071344;28;20036;-52
2021/09/05 06:58:26;;;;;;;5.95;5.35;;;;;;;15.94;68.53;101445.22;5070722;28;20044;-51
2021/09/05 07:00:57;;;;;;;5.97;5.20;;;;;;;15.95;68.47;101455.03;5070960;28;20028;-50
2021/09/05 07:03:25;;;;;;;5.80;5.22;;;;;;;15.98;68.32;101447.00;5069579;28;20020;-52
2021/09/05 07:05:51;;;;;;;5.82;5.20;;;;;;;15.98;68.39;101451.41;5051308;28;20031;-51
2021/09/05 07:08:21;;;;;;;6.05;5.38;;;;;;;15.97;68.22;101450.53;5071502;28;20056;-51
2021/09/05 07:10:53;;;;;;;6.95;6.25;;;;;;;15.98;68.39;101446.09;5056521;28;20039;-50
2021/09/05 07:13:24;;;;;;;6.18;5.20;;;;;;;15.96;68.29;101453.22;5071879;28;20430;-51
2021/09/05 07:15:56;;;;;;;8.05;5.50;;;;;;;15.96;68.39;101464.75;5071251;28;20101;-51
2021/09/05 07:18:25;;;;;;;6.80;6.10;;;;;;;15.94;68.45;101460.34;5071421;28;20039;-51
2021/09/05 07:20:58;;;;;;;6.00;5.40;;;;;;;15.96;68.37;101458.53;5065457;28;20021;-52
2021/09/05 07:23:32;;;;;;;5.82;5.22;;;;;;;15.95;68.36;101462.09;5067000;28;20417;-52
2021/09/05 07:26:02;;;;;;;5.90;5.30;;;;;;;15.94;68.44;101458.53;5072829;28;20125;-51
2021/09/05 07:28:32;;;;;;;5.85;5.32;;;;;;;15.94;68.41;101461.19;5068392;28;20016;-52
2021/09/05 07:31:00;;;;;;;6.30;5.70;;;;;;;15.96;68.41;101462.09;5069149;28;20070;-52
2021/09/05 07:33:32;;;;;;;6.97;5.72;;;;;;;15.94;68.33;101466.50;5050604;28;20020;-52
2021/09/05 07:35:59;;;;;;;7.05;5.88;;;;;;;15.93;68.43;101467.44;5069354;28;20425;-52
2021/09/05 07:38:25;;;;;;;7.80;5.15;;;;;;;15.94;68.45;101476.31;5071136;28;20060;-52
2021/09/05 07:40:54;;;;;;;5.97;5.38;;;;;;;15.95;68.46;101481.63;5069655;28;20099;-52
2021/09/05 07:43:20;;;;;;;6.55;5.35;;;;;;;15.95;68.55;101484.28;5057285;28;20024;-52
2021/09/05 07:45:45;;;;;;;6.93;5.68;;;;;;;15.95;68.40;101484.28;5068225;28;20474;-50
2021/09/05 07:48:11;;;;;;;6.97;6.15;;;;;;;15.94;68.41;101481.63;5069883;28;20017;-51
2021/09/05 07:50:37;;;;;;;6.32;5.70;;;;;;;15.91;68.56;101479.91;5071065;28;20453;-50
2021/09/05 07:53:02;;;;;;;7.05;6.13;;;;;;;15.92;68.60;101481.66;5074470;28;20028;-53
2021/09/05 07:55:28;;;;;;;6.50;5.18;;;;;;;15.92;68.51;101484.31;5070046;28;20103;-49
2021/09/05 07:57:53;;;;;;;6.47;5.78;;;;;;;15.94;68.43;101486.94;5053762;28;20032;-51
2021/09/05 08:00:19;;;;;;;5.70;4.68;;;;;;;15.93;68.56;101479.88;5058295;28;20034;-52
2021/09/05 08:02:45;;;;;;;5.32;4.82;;;;;;;15.93;68.52;101482.53;5055917;28;20024;-51
2021/09/05 08:05:11;;;;;;;5.88;5.35;;;;;;;15.91;68.54;101485.22;5070778;28;20035;-49
2021/09/05 08:07:36;;;;;;;6.88;5.97;;;;;;;15.90;68.63;101481.66;5055464;28;20040;-49
2021/09/05 08:10:05;;;;;;;6.85;5.85;;;;;;;15.89;68.62;101479.03;5073256;28;20212;-50
2021/09/05 08:12:31;;;;;;;6.65;5.88;;;;;;;15.90;68.77;101480.78;5071006;28;20024;-51
2021/09/05 08:14:57;;;;;;;6.57;5.97;;;;;;;15.90;68.66;101483.44;5071754;28;20020;-52
2021/09/05 08:17:22;;;;;;;6.22;5.47;;;;;;;15.88;68.86;101485.28;5040610;28;20020;-52
2021/09/05 08:19:50;;;;;;;6.55;5.63;;;;;;;15.89;68.95;101487.00;5070713;28;20535;-51
2021/09/05 08:22:19;;;;;;;8.15;6.28;;;;;;;15.88;68.79;101488.78;5071419;28;20028;-52
2021/09/05 08:24:44;;;;;;;8.02;5.90;;;;;;;15.87;68.80;101491.50;5053715;28;20074;-52
2021/09/05 08:27:09;;;;;;;8.57;6.30;;;;;;;15.88;68.71;101495.91;5068167;28;20024;-52
2021/09/05 08:29:35;;;;;;;7.85;6.05;;;;;;;15.86;68.96;101493.28;5069929;28;20028;-51
2021/09/05 08:32:01;;;;;;;7.15;6.30;;;;;;;15.88;68.99;101498.56;5069467;28;20424;-51
2021/09/05 08:34:26;;;;;;;7.18;6.10;;;;;;;15.89;68.98;101500.31;5069624;28;20025;-52
2021/09/05 08:36:51;;;;;;;7.93;6.70;;;;;;;15.86;69.21;101498.59;5069378;28;20059;-52
2021/09/05 08:39:16;;;;;;;8.02;6.53;;;;;;;15.85;69.12;101501.28;5070378;28;20111;-52
2021/09/05 08:41:43;;;;;;;7.20;6.43;;;;;;;15.86;69.14;101505.69;5072966;28;20056;-51
2021/09/05 08:44:08;;;;;;;8.23;6.15;;;;;;;15.83;69.37;101506.63;5056194;28;20040;-51
2021/09/05 08:46:34;;;;;;;6.75;6.10;;;;;;;15.84;69.03;101512.84;5073667;28;20024;-51
2021/09/05 08:49:03;;;;;;;7.38;6.63;;;;;;;15.84;69.08;101510.19;5069731;28;20016;-52
2021/09/05 08:51:28;;;;;;;7.38;5.95;;;;;;;15.84;69.28;101511.03;5056881;28;20082;-52
2021/09/05 08:53:54;;;;;;;7.57;6.70;;;;;;;15.86;69.21;101519.88;5073529;28;20017;-52
2021/09/05 08:56:20;;;;;;;8.32;7.05;;;;;;;15.84;69.33;101507.50;5073506;28;20062;-52
2021/09/05 08:58:45;;;;;;;7.22;6.03;;;;;;;15.86;69.04;101521.66;5073855;28;20033;-52
2021/09/05 09:01:23;;;;;;;9.80;7.03;;;;;;;15.85;69.27;101520.78;5073554;28;20028;-52
2021/09/05 09:03:48;;;;;;;6.97;6.28;;;;;;;15.85;69.54;101519.91;5055883;28;20409;-52
2021/09/05 09:06:20;;;;;;;7.50;6.05;;;;;;;15.85;69.25;101522.56;5073472;28;20028;-52
2021/09/05 09:09:03;;;;;;;7.85;6.50;;;;;;;15.85;69.20;101515.47;5072791;28;20151;-52
2021/09/05 09:11:53;;;;;;;9.02;6.85;;;;;;;15.86;69.25;101529.63;5073487;28;20056;-52
2021/09/05 09:14:22;;;;;;;7.15;6.30;;;;;;;15.85;69.35;101520.78;5071754;28;20013;-52
2021/09/05 09:16:48;;;;;;;8.85;6.20;;;;;;;15.86;69.27;101516.31;5072578;28;20027;-52
2021/09/05 09:19:27;;;;;;;9.00;6.93;;;;;;;15.86;69.14;101517.22;5072604;28;20397;-52
2021/09/05 09:21:53;;;;;;;7.85;6.57;;;;;;;15.85;69.20;101510.16;5057468;28;20020;-52
2021/09/05 09:24:19;;;;;;;8.18;6.90;;;;;;;15.86;69.21;101506.56;5072958;28;20055;-52
2021/09/05 09:27:03;;;;;;;8.35;7.32;;;;;;;15.88;69.62;101511.88;5073089;28;21433;-52
2021/09/05 09:29:30;;;;;;;9.55;6.90;;;;;;;15.85;69.44;101512.81;5040907;28;20023;-52
2021/09/05 09:31:58;;;;;;;9.85;7.70;;;;;;;15.86;69.48;101500.38;5072925;28;20028;-52
2021/09/05 09:34:24;;;;;;;9.93;8.38;;;;;;;15.86;69.35;101508.34;5071907;28;20043;-51
2021/09/05 09:36:58;;;;;;;9.02;7.22;;;;;;;15.86;69.34;101503.03;5072160;28;20494;-50
2021/09/05 09:39:27;;;;;;;8.88;7.00;;;;;;;15.86;69.22;101503.03;5057640;28;20670;-51
2021/09/05 09:41:53;;;;;;;9.80;7.18;;;;;;;15.89;69.19;101510.97;5059285;28;20099;-52
2021/09/05 09:44:18;;;;;;;8.10;6.88;;;;;;;15.89;69.27;101505.63;5072607;28;20480;-52
2021/09/05 09:46:44;;;;;;;9.48;7.35;;;;;;;15.88;69.19;101504.75;5072516;28;20025;-50
2021/09/05 09:49:14;;;;;;;8.50;7.18;;;;;;;15.90;69.16;101507.38;5057013;28;20032;-50
2021/09/05 09:51:41;;;;;;;10.20;7.38;;;;;;;15.89;69.25;101501.22;5071264;28;20084;-50
2021/09/05 09:54:06;;;;;;;8.32;6.40;;;;;;;15.89;69.20;101500.31;5057069;28;20051;-50
2021/09/05 09:56:33;;;;;;;7.78;6.65;;;;;;;15.89;69.24;101501.22;5070222;28;20445;-51
2021/09/05 09:59:00;;;;;;;10.10;7.38;;;;;;;15.89;69.54;101502.97;5070217;28;20016;-51
2021/09/05 10:01:27;;;;;;;9.18;7.03;;;;;;;15.90;69.23;101508.28;5040410;28;20552;-50
2021/09/05 10:03:58;;;;;;;9.88;7.25;;;;;;;15.91;69.38;101509.16;5071840;28;20496;-52
2021/09/05 10:06:32;;;;;;;9.10;7.03;;;;;;;15.90;69.41;101507.38;5071143;28;20035;-50
2021/09/05 10:09:06;;;;;;;9.15;7.38;;;;;;;15.91;69.51;101503.84;5057239;28;20024;-50
2021/09/05 10:11:33;;;;;;;9.32;7.72;;;;;;;15.92;69.35;101508.25;5072463;28;20401;-51
2021/09/05 10:13:59;;;;;;;10.48;8.25;;;;;;;15.91;69.55;101504.69;5071233;28;20028;-52
2021/09/05 10:16:24;;;;;;;9.68;8.00;;;;;;;15.91;69.69;101504.69;5057676;28;20036;-52
2021/09/05 10:18:51;;;;;;;10.55;8.52;;;;;;;15.90;69.69;101504.72;5072652;28;20078;-52
2021/09/05 10:21:19;;;;;;;13.77;9.05;;;;;;;15.90;69.79;101508.28;5054376;28;20047;-52
2021/09/05 10:23:50;;;;;;;9.80;8.80;;;;;;;15.93;69.78;101515.31;5055656;28;20417;-52
2021/09/05 10:26:16;;;;;;;;;;;;;;;15.93;69.61;101510.00;5072648;28;20032;-52
2021/09/05 10:28:44;;;;;;;10.85;8.35;;;;;;;15.92;69.61;101510.91;5069023;28;19920;-52
2021/09/05 10:31:11;;;;;;;10.55;8.88;;;;;;;15.92;69.43;101502.94;5070736;28;20090;-52
2021/09/05 10:33:39;;;;;;;10.27;7.95;;;;;;;15.93;69.36;101510.00;5056498;28;20033;-51
2021/09/05 10:36:12;;;;;;;9.85;7.80;;;;;;;15.91;69.70;101504.69;5070342;28;20032;-51
2021/09/05 10:38:44;;;;;;;9.68;8.27;;;;;;;15.94;69.66;101505.56;5072067;28;20017;-51
2021/09/05 10:41:19;;;;;;;9.48;8.20;;;;;;;15.94;69.74;101503.75;5056413;28;20028;-52
2021/09/05 10:43:47;;;;;;;9.48;8.48;;;;;;;15.92;69.88;101494.94;5069541;28;20028;-52
2021/09/05 10:46:21;;;;;;;9.65;8.25;;;;;;;15.93;69.68;101499.34;5071779;28;20655;-52
2021/09/05 10:48:49;;;;;;;9.90;8.50;;;;;;;15.94;69.78;101495.78;5071478;28;20430;-52
2021/09/05 10:51:17;;;;;;;10.68;8.40;;;;;;;15.94;69.69;101495.78;5056267;28;20024;-52
2021/09/05 10:54:02;;;;;;;10.75;9.07;;;;;;;15.94;69.80;101498.44;5071164;28;20051;-52
2021/09/05 10:56:31;;;;;;;10.00;8.57;;;;;;;15.94;69.80;101498.44;5069355;28;20103;-52
2021/09/05 10:59:06;;;;;;;9.80;8.82;;;;;;;15.93;69.95;101491.38;5071016;28;20028;-52
2021/09/05 11:01:36;;;;;;;11.27;8.68;;;;;;;15.93;69.88;101491.38;5070538;28;20040;-51
2021/09/05 11:04:18;;;;;;;10.13;7.90;;;;;;;15.95;69.76;101496.66;5070249;28;20036;-52
2021/09/05 11:06:43;;;;;;;10.35;8.38;;;;;;;15.93;70.18;101490.50;5069400;28;20048;-52
2021/09/05 11:09:27;;;;;;;11.18;8.93;;;;;;;15.94;70.13;101493.13;5071301;28;20093;-52
2021/09/05 11:11:58;;;;;;;10.57;8.80;;;;;;;15.94;70.14;101493.13;5070554;28;20415;-52
2021/09/05 11:14:40;;;;;;;11.75;9.38;;;;;;;15.95;70.17;101491.34;5071042;28;20040;-52
2021/09/05 11:17:08;;;;;;;8.93;8.02;;;;;;;15.96;70.06;101483.38;5070740;28;20035;-52
2021/09/05 11:19:49;;;;;;;11.85;9.07;;;;;;;15.96;70.08;101486.03;5071008;28;20029;-52
2021/09/05 11:22:22;;;;;;;;;;;;;;;16.00;69.89;101490.38;5069777;28;20044;-52
2021/09/05 11:25:05;;;;;;;11.07;9.05;;;;;;;15.98;70.10;101494.00;5069379;28;19912;-52
2021/09/05 11:27:31;;;;;;;11.85;9.77;;;;;;;15.99;70.04;101485.97;5068839;28;20497;-52